Time;durP1;ratioP1;P1;durP2;ratioP2;P2;SDS_P1;SDS_P2;PMS_P1;PMS_P2;Temp;Humidity;BMP_temperature;BMP_pressure;BME280_temperature;BME280_humidity;BME280_pressure;Samples;Min_cycle;Max_cycle;Signal;HPM_P1;HPM_P2
2023/10/28 00:00:51;;;;;;;1.40;1.00;;;;;;;;;;5033518;28;20567;-66
2023/10/28 00:03:20;;;;;;;1.73;0.97;;;;;;;;;;5034094;28;20698;-67
2023/10/28 00:05:48;;;;;;;2.43;1.13;;;;;;;;;;5030480;28;20663;-68
2023/10/28 00:08:17;;;;;;;2.03;0.87;;;;;;;;;;5029380;28;20656;-64
2023/10/28 00:10:46;;;;;;;1.07;0.70;;;;;;;;;;5020324;28;20208;-65
2023/10/28 00:13:20;;;;;;;1.57;0.90;;;;;;;;;;5026452;28;20223;-68
2023/10/28 00:15:48;;;;;;;3.13;1.00;;;;;;;;;;5040133;28;20250;-65
2023/10/28 00:18:16;;;;;;;0.90;0.90;;;;;;;;;;5039740;28;20667;-64
2023/10/28 00:20:45;;;;;;;1.50;1.40;;;;;;;;;;5039748;28;20219;-65
2023/10/28 00:23:13;;;;;;;1.07;0.93;;;;;;;;;;5039886;28;20215;-64
2023/10/28 00:25:42;;;;;;;1.67;1.20;;;;;;;;;;5031561;28;20551;-66
2023/10/28 00:28:10;;;;;;;1.10;1.00;;;;;;;;;;5037269;28;20204;-66
2023/10/28 00:30:40;;;;;;;2.43;0.80;;;;;;;;;;5039242;28;20212;-66
2023/10/28 00:33:08;;;;;;;4.27;1.23;;;;;;;;;;5033709;28;20211;-65
2023/10/28 00:35:37;;;;;;;1.90;1.00;;;;;;;;;;5019307;28;20239;-66
2023/10/28 00:38:05;;;;;;;2.20;1.07;;;;;;;;;;5019712;28;20207;-65
2023/10/28 00:40:34;;;;;;;2.13;0.83;;;;;;;;;;5024047;28;20199;-65
2023/10/28 00:43:02;;;;;;;2.87;1.00;;;;;;;;;;5037248;28;21891;-66
2023/10/28 00:45:30;;;;;;;2.53;1.13;;;;;;;;;;5039228;28;20203;-64
2023/10/28 00:47:59;;;;;;;3.30;1.00;;;;;;;;;;5037647;28;20572;-65
2023/10/28 00:50:29;;;;;;;3.37;1.30;;;;;;;;;;5038116;28;20731;-64
2023/10/28 00:52:59;;;;;;;1.30;1.00;;;;;;;;;;5037068;28;20210;-65
2023/10/28 00:55:29;;;;;;;3.27;1.00;;;;;;;;;;5038499;28;20233;-67
2023/10/28 00:57:57;;;;;;;1.83;1.00;;;;;;;;;;5036280;28;20242;-65
2023/10/28 01:00:25;;;;;;;1.20;0.90;;;;;;;;;;5029251;28;20592;-65
2023/10/28 01:02:54;;;;;;;2.87;0.90;;;;;;;;;;5022690;28;20572;-64
2023/10/28 01:05:23;;;;;;;3.73;1.20;;;;;;;;;;5032407;28;20204;-64
2023/10/28 01:07:51;;;;;;;1.90;0.97;;;;;;;;;;5038305;28;20223;-65
2023/10/28 01:10:29;;;;;;;1.53;1.13;;;;;;;;;;5038351;28;20238;-65
2023/10/28 01:12:58;;;;;;;1.23;1.13;;;;;;;;;;5020893;28;20207;-67
2023/10/28 01:15:27;;;;;;;0.80;0.80;;;;;;;;;;5037989;28;20678;-67
2023/10/28 01:17:57;;;;;;;0.90;0.90;;;;;;;;;;5037489;28;20295;-65
2023/10/28 01:20:27;;;;;;;1.03;0.97;;;;;;;;;;5031339;28;20207;-65
2023/10/28 01:22:58;;;;;;;4.50;1.00;;;;;;;;;;5037932;28;20207;-66
2023/10/28 01:25:27;;;;;;;1.27;0.90;;;;;;;;;;5022505;28;20627;-65
2023/10/28 01:27:55;;;;;;;2.03;0.90;;;;;;;;;;5018708;28;20208;-66
2023/10/28 01:30:23;;;;;;;2.33;1.13;;;;;;;;;;5037608;28;20214;-65
2023/10/28 01:32:51;;;;;;;1.17;0.80;;;;;;;;;;5035427;28;20204;-66
2023/10/28 01:35:19;;;;;;;2.20;0.80;;;;;;;;;;5018443;28;20232;-65
2023/10/28 01:37:47;;;;;;;2.97;1.20;;;;;;;;;;5019076;28;20211;-65
2023/10/28 01:40:19;;;;;;;1.00;0.90;;;;;;;;;;5035443;28;20298;-65
2023/10/28 01:42:47;;;;;;;2.80;0.93;;;;;;;;;;5034249;28;20208;-65
2023/10/28 01:45:16;;;;;;;1.10;0.80;;;;;;;;;;5028614;28;20219;-65
2023/10/28 01:47:44;;;;;;;3.47;1.20;;;;;;;;;;5037388;28;20205;-66
2023/10/28 01:50:13;;;;;;;1.30;0.93;;;;;;;;;;5037104;28;20801;-66
2023/10/28 01:52:44;;;;;;;3.90;1.33;;;;;;;;;;5037039;28;20243;-65
2023/10/28 01:55:13;;;;;;;4.87;1.30;;;;;;;;;;5037050;28;20662;-66
2023/10/28 01:57:43;;;;;;;2.03;1.00;;;;;;;;;;5037144;28;20266;-65
2023/10/28 02:00:13;;;;;;;2.50;0.93;;;;;;;;;;5032815;28;20204;-66
2023/10/28 02:02:41;;;;;;;3.63;1.33;;;;;;;;;;5026355;28;20721;-65
2023/10/28 02:05:10;;;;;;;1.43;0.80;;;;;;;;;;5036667;28;20226;-66
2023/10/28 02:07:38;;;;;;;3.00;1.00;;;;;;;;;;5037719;28;20326;-65
2023/10/28 02:10:07;;;;;;;1.73;1.17;;;;;;;;;;5023712;28;20246;-65
2023/10/28 02:12:35;;;;;;;1.40;0.77;;;;;;;;;;5027410;28;20250;-65
2023/10/28 02:15:06;;;;;;;1.13;1.00;;;;;;;;;;5021168;28;20224;-65
2023/10/28 02:17:35;;;;;;;3.27;0.90;;;;;;;;;;5018272;28;20205;-66
2023/10/28 02:20:04;;;;;;;2.97;0.80;;;;;;;;;;5018015;28;20219;-66
2023/10/28 02:22:32;;;;;;;1.77;0.93;;;;;;;;;;5017849;28;20254;-66
2023/10/28 02:25:00;;;;;;;3.83;0.97;;;;;;;;;;5018016;28;20235;-65
2023/10/28 02:27:28;;;;;;;1.70;0.90;;;;;;;;;;5020931;28;22619;-65
2023/10/28 02:29:56;;;;;;;1.67;0.60;;;;;;;;;;5036735;28;20211;-65
2023/10/28 02:32:28;;;;;;;0.90;0.67;;;;;;;;;;5037242;28;20223;-65
2023/10/28 02:34:59;;;;;;;3.67;0.87;;;;;;;;;;5035947;28;20223;-65
2023/10/28 02:37:27;;;;;;;2.27;1.07;;;;;;;;;;5037500;28;20230;-65
2023/10/28 02:39:56;;;;;;;1.57;0.67;;;;;;;;;;5036444;28;20211;-65
2023/10/28 02:42:24;;;;;;;1.17;0.93;;;;;;;;;;5034250;28;20211;-66
2023/10/28 02:44:52;;;;;;;2.23;0.80;;;;;;;;;;5035076;28;20224;-65
2023/10/28 02:47:20;;;;;;;3.70;0.93;;;;;;;;;;5034457;28;20202;-65
2023/10/28 02:49:50;;;;;;;1.23;0.80;;;;;;;;;;5036004;28;20207;-65
2023/10/28 02:52:18;;;;;;;3.03;0.97;;;;;;;;;;5037422;28;20199;-65
2023/10/28 02:54:46;;;;;;;2.60;0.70;;;;;;;;;;5034147;28;20231;-65
2023/10/28 02:57:14;;;;;;;2.17;0.90;;;;;;;;;;5034980;28;20249;-66
2023/10/28 02:59:42;;;;;;;1.70;1.10;;;;;;;;;;5031515;28;20212;-66
2023/10/28 03:02:12;;;;;;;1.73;0.80;;;;;;;;;;5017990;28;20219;-65
2023/10/28 03:04:41;;;;;;;2.63;0.83;;;;;;;;;;5019715;28;20306;-65
2023/10/28 03:07:10;;;;;;;2.30;0.80;;;;;;;;;;5033473;28;20222;-65
2023/10/28 03:09:39;;;;;;;1.57;0.70;;;;;;;;;;5020249;28;20655;-65
2023/10/28 03:12:08;;;;;;;1.57;0.93;;;;;;;;;;5017640;28;20208;-66
2023/10/28 03:14:36;;;;;;;2.03;1.03;;;;;;;;;;5033003;28;20255;-66
2023/10/28 03:17:04;;;;;;;1.67;1.30;;;;;;;;;;5035563;28;20281;-65
2023/10/28 03:19:33;;;;;;;3.20;0.77;;;;;;;;;;5036390;28;20200;-65
2023/10/28 03:22:01;;;;;;;2.63;0.90;;;;;;;;;;5034645;28;20238;-66
2023/10/28 03:24:30;;;;;;;5.00;0.80;;;;;;;;;;5036340;28;20219;-65
2023/10/28 03:27:01;;;;;;;6.73;1.13;;;;;;;;;;5038229;28;20218;-66
2023/10/28 03:29:29;;;;;;;1.63;0.90;;;;;;;;;;5038481;28;20564;-65
2023/10/28 03:31:58;;;;;;;2.60;0.87;;;;;;;;;;5040880;28;20218;-65
2023/10/28 03:34:26;;;;;;;4.20;0.90;;;;;;;;;;5040171;28;20258;-64
2023/10/28 03:36:54;;;;;;;1.70;1.00;;;;;;;;;;5040111;28;20228;-65
2023/10/28 03:39:23;;;;;;;5.37;0.90;;;;;;;;;;5030637;28;20207;-63
2023/10/28 03:41:53;;;;;;;1.50;0.90;;;;;;;;;;5038505;28;20211;-64
2023/10/28 03:44:21;;;;;;;1.70;0.97;;;;;;;;;;5039629;28;20699;-63
2023/10/28 03:46:49;;;;;;;4.17;1.07;;;;;;;;;;5028694;28;20213;-63
2023/10/28 03:49:17;;;;;;;2.33;0.97;;;;;;;;;;5033807;28;20207;-64
2023/10/28 03:51:46;;;;;;;2.03;1.00;;;;;;;;;;5039881;28;20215;-63
2023/10/28 03:54:15;;;;;;;2.97;1.00;;;;;;;;;;5039924;28;20235;-63
2023/10/28 03:56:44;;;;;;;2.47;0.80;;;;;;;;;;5039150;28;20238;-64
2023/10/28 03:59:15;;;;;;;0.90;0.90;;;;;;;;;;5029738;28;20568;-64
2023/10/28 04:01:45;;;;;;;7.00;1.30;;;;;;;;;;5020266;28;20212;-63
2023/10/28 04:04:14;;;;;;;3.13;1.10;;;;;;;;;;5035053;28;20687;-63
2023/10/28 04:06:44;;;;;;;2.97;0.93;;;;;;;;;;5038549;28;20210;-63
2023/10/28 04:09:14;;;;;;;3.93;1.03;;;;;;;;;;5022649;28;20204;-64
2023/10/28 04:11:44;;;;;;;1.47;0.93;;;;;;;;;;5027672;28;20212;-64
2023/10/28 04:14:18;;;;;;;3.37;0.90;;;;;;;;;;5027925;28;20703;-64
2023/10/28 04:16:47;;;;;;;3.87;0.87;;;;;;;;;;5024866;28;20278;-65
2023/10/28 04:19:17;;;;;;;1.50;1.00;;;;;;;;;;5020133;28;20215;-64
2023/10/28 04:21:46;;;;;;;3.03;0.97;;;;;;;;;;5019663;28;20212;-64
2023/10/28 04:24:14;;;;;;;6.70;0.93;;;;;;;;;;5020065;28;20232;-64
2023/10/28 04:26:42;;;;;;;1.43;0.80;;;;;;;;;;5020607;28;20200;-66
2023/10/28 04:29:10;;;;;;;1.67;0.90;;;;;;;;;;5037918;28;20573;-65
2023/10/28 04:31:40;;;;;;;3.47;1.03;;;;;;;;;;5039445;28;20242;-65
2023/10/28 04:34:11;;;;;;;4.37;0.80;;;;;;;;;;5038350;28;20583;-64
2023/10/28 04:36:39;;;;;;;1.80;0.90;;;;;;;;;;5037769;28;20207;-65
2023/10/28 04:39:07;;;;;;;1.70;0.90;;;;;;;;;;5022647;28;20562;-64
2023/10/28 04:41:35;;;;;;;5.23;1.10;;;;;;;;;;5029695;28;20200;-65
2023/10/28 04:44:03;;;;;;;1.37;0.77;;;;;;;;;;5038561;28;20219;-65
2023/10/28 04:46:31;;;;;;;1.77;1.00;;;;;;;;;;5039534;28;20208;-65
2023/10/28 04:49:01;;;;;;;0.80;0.80;;;;;;;;;;5029872;28;20207;-64
2023/10/28 04:51:29;;;;;;;0.87;0.70;;;;;;;;;;5038243;28;20573;-64
2023/10/28 04:53:57;;;;;;;1.63;1.00;;;;;;;;;;5038525;28;20231;-65
2023/10/28 04:56:26;;;;;;;2.10;0.80;;;;;;;;;;5037885;28;20244;-64
2023/10/28 04:58:56;;;;;;;1.07;0.80;;;;;;;;;;5034528;28;20265;-65
2023/10/28 05:01:24;;;;;;;1.30;0.87;;;;;;;;;;5021754;28;20299;-65
2023/10/28 05:03:52;;;;;;;7.93;0.97;;;;;;;;;;5032425;28;20293;-65
2023/10/28 05:06:21;;;;;;;2.20;1.00;;;;;;;;;;5020669;28;20212;-65
2023/10/28 05:08:50;;;;;;;2.60;0.90;;;;;;;;;;5036294;28;20211;-65
2023/10/28 05:11:18;;;;;;;4.30;0.90;;;;;;;;;;5038885;28;20218;-65
2023/10/28 05:13:46;;;;;;;3.43;1.10;;;;;;;;;;5038217;28;20740;-65
2023/10/28 05:16:14;;;;;;;5.33;1.13;;;;;;;;;;5038119;28;20598;-65
2023/10/28 05:18:42;;;;;;;2.20;1.00;;;;;;;;;;5037891;28;20636;-65
2023/10/28 05:21:11;;;;;;;3.00;0.80;;;;;;;;;;5036854;28;20206;-65
2023/10/28 05:23:41;;;;;;;5.70;1.10;;;;;;;;;;5037355;28;20234;-64
2023/10/28 05:26:09;;;;;;;1.43;0.83;;;;;;;;;;5019094;28;20246;-64
2023/10/28 05:28:37;;;;;;;2.00;1.00;;;;;;;;;;5024370;28;20341;-65
2023/10/28 05:31:06;;;;;;;2.87;1.13;;;;;;;;;;5027520;28;20204;-64
2023/10/28 05:33:34;;;;;;;1.97;0.90;;;;;;;;;;5023204;28;20259;-64
2023/10/28 05:36:03;;;;;;;4.10;1.17;;;;;;;;;;5036744;28;20200;-65
2023/10/28 05:38:34;;;;;;;2.13;1.10;;;;;;;;;;5034509;28;20227;-65
2023/10/28 05:41:03;;;;;;;3.77;1.13;;;;;;;;;;5034490;28;20538;-65
2023/10/28 05:43:32;;;;;;;1.23;0.70;;;;;;;;;;5020727;28;20220;-65
2023/10/28 05:46:00;;;;;;;2.27;0.90;;;;;;;;;;5018765;28;20204;-65
2023/10/28 05:48:29;;;;;;;2.53;1.30;;;;;;;;;;5018314;28;20235;-65
2023/10/28 05:50:57;;;;;;;1.80;1.00;;;;;;;;;;5018081;28;20215;-65
2023/10/28 05:53:25;;;;;;;2.03;1.00;;;;;;;;;;5026270;28;20223;-65
2023/10/28 05:55:54;;;;;;;1.67;1.00;;;;;;;;;;5018578;28;20672;-65
2023/10/28 05:58:23;;;;;;;2.50;1.20;;;;;;;;;;5018195;28;20250;-65
2023/10/28 06:00:52;;;;;;;4.80;1.33;;;;;;;;;;5018464;28;20287;-65
2023/10/28 06:03:20;;;;;;;4.80;1.10;;;;;;;;;;5027573;28;21156;-65
2023/10/28 06:05:48;;;;;;;1.60;0.90;;;;;;;;;;5017899;28;20208;-65
2023/10/28 06:08:16;;;;;;;3.13;0.93;;;;;;;;;;5017920;28;20204;-65
2023/10/28 06:10:47;;;;;;;2.40;1.10;;;;;;;;;;5020289;28;20212;-64
2023/10/28 06:13:15;;;;;;;2.03;1.03;;;;;;;;;;5018128;28;20208;-65
2023/10/28 06:15:46;;;;;;;3.77;1.40;;;;;;;;;;5018212;28;20207;-65
2023/10/28 06:18:14;;;;;;;2.90;1.10;;;;;;;;;;5018187;28;20228;-65
2023/10/28 06:20:46;;;;;;;1.53;1.10;;;;;;;;;;5017878;28;20230;-65
2023/10/28 06:23:15;;;;;;;2.03;1.00;;;;;;;;;;5017866;28;20569;-65
2023/10/28 06:25:43;;;;;;;3.03;1.00;;;;;;;;;;5017866;28;20675;-65
2023/10/28 06:28:11;;;;;;;2.63;0.90;;;;;;;;;;5027217;28;20596;-64
2023/10/28 06:30:47;;;;;;;4.97;1.23;;;;;;;;;;5017845;28;20682;-64
2023/10/28 06:33:18;;;;;;;2.47;1.00;;;;;;;;;;5017977;28;20295;-65
2023/10/28 06:35:47;;;;;;;5.33;1.33;;;;;;;;;;5019365;28;20220;-64
2023/10/28 06:38:15;;;;;;;1.93;0.80;;;;;;;;;;5017959;28;20238;-65
2023/10/28 06:40:43;;;;;;;2.83;1.10;;;;;;;;;;5033793;28;20203;-65
2023/10/28 06:43:12;;;;;;;1.87;0.93;;;;;;;;;;5035986;28;20294;-65
2023/10/28 06:45:40;;;;;;;1.60;0.90;;;;;;;;;;5037687;28;20221;-65
2023/10/28 06:48:10;;;;;;;2.27;0.90;;;;;;;;;;5031104;28;20208;-65
2023/10/28 06:50:38;;;;;;;2.60;1.20;;;;;;;;;;5027039;28;20206;-64
2023/10/28 06:53:06;;;;;;;3.50;1.20;;;;;;;;;;5029182;28;20211;-65
2023/10/28 06:55:38;;;;;;;3.30;0.93;;;;;;;;;;5033671;28;20206;-65
2023/10/28 06:58:06;;;;;;;4.07;1.37;;;;;;;;;;5023034;28;20228;-64
2023/10/28 07:00:34;;;;;;;5.63;1.40;;;;;;;;;;5020714;28;20203;-64
2023/10/28 07:03:02;;;;;;;3.40;0.93;;;;;;;;;;5037922;28;20562;-65
2023/10/28 07:05:32;;;;;;;3.33;0.90;;;;;;;;;;5022565;28;20435;-65
2023/10/28 07:08:00;;;;;;;2.03;1.20;;;;;;;;;;5024296;28;20263;-65
2023/10/28 07:10:29;;;;;;;3.83;1.20;;;;;;;;;;5021007;28;20659;-65
2023/10/28 07:12:57;;;;;;;3.53;1.10;;;;;;;;;;5021180;28;20216;-65
2023/10/28 07:15:25;;;;;;;1.37;1.00;;;;;;;;;;5021108;28;20258;-65
2023/10/28 07:17:54;;;;;;;3.00;1.10;;;;;;;;;;5023773;28;20208;-65
2023/10/28 07:20:22;;;;;;;5.27;1.40;;;;;;;;;;5030320;28;20290;-65
2023/10/28 07:22:52;;;;;;;3.87;1.20;;;;;;;;;;5020731;28;20699;-64
2023/10/28 07:25:20;;;;;;;2.93;0.70;;;;;;;;;;5020935;28;20232;-65
2023/10/28 07:27:49;;;;;;;2.73;0.97;;;;;;;;;;5020864;28;20204;-65
2023/10/28 07:30:18;;;;;;;3.80;1.73;;;;;;;;;;5020735;28;20211;-65
2023/10/28 07:32:46;;;;;;;3.70;1.00;;;;;;;;;;5020832;28;20212;-64
2023/10/28 07:35:16;;;;;;;2.70;1.20;;;;;;;;;;5026381;28;20231;-65
2023/10/28 07:37:44;;;;;;;1.87;0.90;;;;;;;;;;5023441;28;20232;-65
2023/10/28 07:40:14;;;;;;;2.93;1.10;;;;;;;;;;5022605;28;20699;-65
2023/10/28 07:42:42;;;;;;;1.57;0.90;;;;;;;;;;5022090;28;20216;-65
2023/10/28 07:45:10;;;;;;;2.03;1.07;;;;;;;;;;5020399;28;20664;-65
2023/10/28 07:47:38;;;;;;;4.83;1.23;;;;;;;;;;5020332;28;20208;-64
2023/10/28 07:50:07;;;;;;;4.50;1.30;;;;;;;;;;5020117;28;20205;-64
2023/10/28 07:52:35;;;;;;;3.23;1.00;;;;;;;;;;5029718;28;20196;-65
2023/10/28 07:55:04;;;;;;;3.00;1.20;;;;;;;;;;5032618;28;20232;-64
2023/10/28 07:57:34;;;;;;;3.43;1.13;;;;;;;;;;5020458;28;20240;-65
2023/10/28 08:00:04;;;;;;;1.37;0.90;;;;;;;;;;5020413;28;20234;-64
2023/10/28 08:02:33;;;;;;;1.13;0.80;;;;;;;;;;5023723;28;20210;-64
2023/10/28 08:05:01;;;;;;;3.33;1.10;;;;;;;;;;5025758;28;20239;-65
2023/10/28 08:07:29;;;;;;;2.20;1.10;;;;;;;;;;5020330;28;20295;-65
2023/10/28 08:09:57;;;;;;;2.07;1.00;;;;;;;;;;5030733;28;20566;-64
2023/10/28 08:12:26;;;;;;;1.00;0.80;;;;;;;;;;5020040;28;20223;-64
2023/10/28 08:14:56;;;;;;;1.50;0.90;;;;;;;;;;5019929;28;20695;-64
2023/10/28 08:17:24;;;;;;;3.07;0.90;;;;;;;;;;5020312;28;20208;-64
2023/10/28 08:19:55;;;;;;;2.73;1.07;;;;;;;;;;5019990;28;20314;-63
2023/10/28 08:22:25;;;;;;;3.10;1.20;;;;;;;;;;5020171;28;20234;-64
2023/10/28 08:24:53;;;;;;;1.27;0.80;;;;;;;;;;5019881;28;20232;-64
2023/10/28 08:27:22;;;;;;;5.00;1.00;;;;;;;;;;5024256;28;20235;-64
2023/10/28 08:29:51;;;;;;;5.67;1.30;;;;;;;;;;5019825;28;20235;-64
2023/10/28 08:32:20;;;;;;;3.03;1.60;;;;;;;;;;5020151;28;20212;-65
2023/10/28 08:34:48;;;;;;;5.10;0.90;;;;;;;;;;5019432;28;20591;-65
2023/10/28 08:37:18;;;;;;;1.60;0.80;;;;;;;;;;5019658;28;20226;-65
2023/10/28 08:39:46;;;;;;;5.03;1.00;;;;;;;;;;5027894;28;20306;-65
2023/10/28 08:42:17;;;;;;;2.47;1.47;;;;;;;;;;5020649;28;20204;-64
2023/10/28 08:44:45;;;;;;;1.00;0.80;;;;;;;;;;5029704;28;20576;-64
2023/10/28 08:47:13;;;;;;;1.30;0.83;;;;;;;;;;5019514;28;20231;-65
2023/10/28 08:49:45;;;;;;;4.37;0.93;;;;;;;;;;5019604;28;20295;-64
2023/10/28 08:52:14;;;;;;;2.53;1.17;;;;;;;;;;5029828;28;20204;-64
2023/10/28 08:54:43;;;;;;;1.43;1.20;;;;;;;;;;5028964;28;20228;-64
2023/10/28 08:57:13;;;;;;;2.17;1.00;;;;;;;;;;5038929;28;20247;-64
2023/10/28 08:59:41;;;;;;;3.40;1.17;;;;;;;;;;5038004;28;20234;-65
2023/10/28 09:02:11;;;;;;;0.90;0.80;;;;;;;;;;5023148;28;20671;-64
2023/10/28 09:04:41;;;;;;;2.43;0.90;;;;;;;;;;5018878;28;20220;-65
2023/10/28 09:07:11;;;;;;;1.50;1.07;;;;;;;;;;5018842;28;20208;-64
2023/10/28 09:09:39;;;;;;;2.73;1.13;;;;;;;;;;5019323;28;20207;-65
2023/10/28 09:12:10;;;;;;;3.63;1.20;;;;;;;;;;5019083;28;20212;-64
2023/10/28 09:14:38;;;;;;;4.10;1.20;;;;;;;;;;5018906;28;20232;-64
2023/10/28 09:17:07;;;;;;;1.27;0.97;;;;;;;;;;5023785;28;20572;-65
2023/10/28 09:19:42;;;;;;;2.20;1.10;;;;;;;;;;5023681;28;20235;-64
2023/10/28 09:22:12;;;;;;;6.43;1.17;;;;;;;;;;5019029;28;20266;-65
2023/10/28 09:24:44;;;;;;;3.33;1.27;;;;;;;;;;5018374;28;20248;-64
2023/10/28 09:27:12;;;;;;;3.03;1.23;;;;;;;;;;5019052;28;20211;-64
2023/10/28 09:29:41;;;;;;;5.63;1.00;;;;;;;;;;5018885;28;20236;-64
2023/10/28 09:32:10;;;;;;;1.60;1.07;;;;;;;;;;5018935;28;20204;-64
2023/10/28 09:34:39;;;;;;;2.27;1.20;;;;;;;;;;5023887;28;20262;-64
2023/10/28 09:37:07;;;;;;;3.23;1.37;;;;;;;;;;5018754;28;20216;-65
2023/10/28 09:39:37;;;;;;;4.90;1.33;;;;;;;;;;5018463;28;20727;-64
2023/10/28 09:42:06;;;;;;;2.67;1.60;;;;;;;;;;5023741;28;20216;-65
2023/10/28 09:44:37;;;;;;;2.53;1.47;;;;;;;;;;5018655;28;20227;-64
2023/10/28 09:47:05;;;;;;;3.23;1.33;;;;;;;;;;5018545;28;20204;-64
2023/10/28 09:49:34;;;;;;;3.43;1.27;;;;;;;;;;5018243;28;20543;-65
2023/10/28 09:52:06;;;;;;;2.00;1.10;;;;;;;;;;5029621;28;20211;-64
2023/10/28 09:54:36;;;;;;;3.50;1.30;;;;;;;;;;5026823;28;20687;-65
2023/10/28 09:57:09;;;;;;;2.13;0.90;;;;;;;;;;5035511;28;20235;-64
2023/10/28 09:59:39;;;;;;;5.30;1.70;;;;;;;;;;5018335;28;20236;-64
2023/10/28 10:02:15;;;;;;;3.57;1.13;;;;;;;;;;5033282;28;20207;-65
2023/10/28 10:04:47;;;;;;;4.43;1.10;;;;;;;;;;5028820;28;20254;-64
2023/10/28 10:07:16;;;;;;;1.87;1.10;;;;;;;;;;5035675;28;20196;-64
2023/10/28 10:09:44;;;;;;;2.57;1.07;;;;;;;;;;5027738;28;20208;-64
2023/10/28 10:12:14;;;;;;;0.97;0.90;;;;;;;;;;5018027;28;20254;-65
2023/10/28 10:14:45;;;;;;;2.13;1.10;;;;;;;;;;5018047;28;20351;-64
2023/10/28 10:17:19;;;;;;;3.53;1.37;;;;;;;;;;5018296;28;20211;-65
2023/10/28 10:19:48;;;;;;;2.40;1.10;;;;;;;;;;5017513;28;20561;-64
2023/10/28 10:22:18;;;;;;;2.13;1.27;;;;;;;;;;5017938;28;20214;-65
2023/10/28 10:24:49;;;;;;;2.03;0.97;;;;;;;;;;5019557;28;20232;-64
2023/10/28 10:27:32;;;;;;;5.80;1.20;;;;;;;;;;5037562;28;20207;-64
2023/10/28 10:30:05;;;;;;;5.10;1.47;;;;;;;;;;5037642;28;20218;-64
2023/10/28 10:32:40;;;;;;;2.10;1.10;;;;;;;;;;5037651;28;20239;-65
2023/10/28 10:35:13;;;;;;;5.00;1.00;;;;;;;;;;5037186;28;20725;-64
2023/10/28 10:37:41;;;;;;;4.17;1.33;;;;;;;;;;5036587;28;20246;-64
2023/10/28 10:40:10;;;;;;;2.50;0.90;;;;;;;;;;5035842;28;20227;-65
2023/10/28 10:42:40;;;;;;;4.47;1.10;;;;;;;;;;5023811;28;20216;-64
2023/10/28 10:45:10;;;;;;;4.40;1.20;;;;;;;;;;5017591;28;20228;-64
2023/10/28 10:47:38;;;;;;;1.87;1.33;;;;;;;;;;5017828;28;20211;-64
2023/10/28 10:50:08;;;;;;;2.07;1.00;;;;;;;;;;5017635;28;20212;-65
2023/10/28 10:52:38;;;;;;;2.17;1.23;;;;;;;;;;5017709;28;20201;-65
2023/10/28 10:55:06;;;;;;;2.10;0.90;;;;;;;;;;5030557;28;20583;-67
2023/10/28 10:57:37;;;;;;;1.47;1.13;;;;;;;;;;5037107;28;20724;-66
2023/10/28 11:00:13;;;;;;;2.80;1.20;;;;;;;;;;5037258;28;20569;-66
2023/10/28 11:02:41;;;;;;;6.00;1.27;;;;;;;;;;5033191;28;20542;-66
2023/10/28 11:05:09;;;;;;;2.93;1.00;;;;;;;;;;5022076;28;20260;-66
2023/10/28 11:07:37;;;;;;;3.00;1.20;;;;;;;;;;5019174;28;20200;-66
2023/10/28 11:10:08;;;;;;;1.53;1.20;;;;;;;;;;5025401;28;20207;-66
2023/10/28 11:12:36;;;;;;;3.80;1.20;;;;;;;;;;5036443;28;20710;-64
2023/10/28 11:15:05;;;;;;;1.83;0.97;;;;;;;;;;5037043;28;20232;-66
2023/10/28 11:17:35;;;;;;;3.67;0.97;;;;;;;;;;5036694;28;20211;-66
2023/10/28 11:20:05;;;;;;;3.40;0.93;;;;;;;;;;5036217;28;20257;-65
2023/10/28 11:22:34;;;;;;;4.57;1.03;;;;;;;;;;5035456;28;20204;-65
2023/10/28 11:25:04;;;;;;;2.87;1.10;;;;;;;;;;5035279;28;20226;-66
2023/10/28 11:27:32;;;;;;;7.93;1.20;;;;;;;;;;5026500;28;20212;-64
2023/10/28 11:30:03;;;;;;;1.90;1.23;;;;;;;;;;5023963;28;20208;-66
2023/10/28 11:32:38;;;;;;;3.10;1.33;;;;;;;;;;5032290;28;20200;-66
2023/10/28 11:35:09;;;;;;;2.87;1.00;;;;;;;;;;5017277;28;20260;-67
2023/10/28 11:37:39;;;;;;;2.53;1.30;;;;;;;;;;5016980;28;20215;-66
2023/10/28 11:40:09;;;;;;;4.33;1.20;;;;;;;;;;5018587;28;20211;-66
2023/10/28 11:42:38;;;;;;;2.33;1.33;;;;;;;;;;5023418;28;20207;-67
2023/10/28 11:45:07;;;;;;;1.40;0.90;;;;;;;;;;5017113;28;20231;-66
2023/10/28 11:47:35;;;;;;;3.57;1.20;;;;;;;;;;5017705;28;20216;-65
2023/10/28 11:50:05;;;;;;;2.47;0.97;;;;;;;;;;5025104;28;20205;-65
2023/10/28 11:52:37;;;;;;;2.90;1.17;;;;;;;;;;5021582;28;20749;-65
2023/10/28 11:55:06;;;;;;;3.53;0.90;;;;;;;;;;5033261;28;20239;-65
2023/10/28 11:57:34;;;;;;;4.27;1.00;;;;;;;;;;5040248;28;20706;-66
2023/10/28 12:00:04;;;;;;;3.23;0.93;;;;;;;;;;5040309;28;20254;-66
2023/10/28 12:02:32;;;;;;;2.40;1.00;;;;;;;;;;5036333;28;20314;-65
2023/10/28 12:05:00;;;;;;;4.23;1.10;;;;;;;;;;5026103;28;20693;-65
2023/10/28 12:07:29;;;;;;;2.50;1.00;;;;;;;;;;5021315;28;20593;-65
2023/10/28 12:09:58;;;;;;;6.23;1.27;;;;;;;;;;5020620;28;20215;-66
2023/10/28 12:12:26;;;;;;;1.93;0.83;;;;;;;;;;5020314;28;20259;-66
2023/10/28 12:14:55;;;;;;;3.93;1.03;;;;;;;;;;5020064;28;20239;-65
2023/10/28 12:17:23;;;;;;;3.00;1.07;;;;;;;;;;5020456;28;20216;-66
2023/10/28 12:19:51;;;;;;;4.47;1.20;;;;;;;;;;5024764;28;20238;-65
2023/10/28 12:22:19;;;;;;;2.30;1.20;;;;;;;;;;5019986;28;20232;-66
2023/10/28 12:24:47;;;;;;;3.23;1.00;;;;;;;;;;5028165;28;20278;-65
2023/10/28 12:27:17;;;;;;;8.10;1.17;;;;;;;;;;5024535;28;20223;-65
2023/10/28 12:29:45;;;;;;;3.80;1.00;;;;;;;;;;5037921;28;20204;-66
2023/10/28 12:32:14;;;;;;;2.33;1.03;;;;;;;;;;5030012;28;20200;-65
2023/10/28 12:34:42;;;;;;;2.47;1.20;;;;;;;;;;5039598;28;20227;-66
2023/10/28 12:37:10;;;;;;;5.17;0.93;;;;;;;;;;5038965;28;20218;-67
2023/10/28 12:39:39;;;;;;;2.37;0.97;;;;;;;;;;5024669;28;20215;-65
2023/10/28 12:42:07;;;;;;;3.20;0.97;;;;;;;;;;5037401;28;20236;-65
2023/10/28 12:44:37;;;;;;;3.90;1.13;;;;;;;;;;5033528;28;21068;-65
2023/10/28 12:47:05;;;;;;;3.93;1.10;;;;;;;;;;5039579;28;20217;-65
2023/10/28 12:49:34;;;;;;;2.17;1.20;;;;;;;;;;5039103;28;20215;-65
2023/10/28 12:52:02;;;;;;;2.23;0.97;;;;;;;;;;5039430;28;20204;-66
2023/10/28 12:54:32;;;;;;;4.00;1.13;;;;;;;;;;5031753;28;20228;-65
2023/10/28 12:57:01;;;;;;;5.57;1.30;;;;;;;;;;5019215;28;20232;-65
2023/10/28 12:59:30;;;;;;;5.40;1.33;;;;;;;;;;5026522;28;20204;-68
2023/10/28 13:02:00;;;;;;;5.17;1.00;;;;;;;;;;5019509;28;20275;-68
2023/10/28 13:04:28;;;;;;;5.53;1.23;;;;;;;;;;5028854;28;20278;-67
2023/10/28 13:06:56;;;;;;;3.60;1.30;;;;;;;;;;5019072;28;20560;-67
2023/10/28 13:09:25;;;;;;;3.80;0.90;;;;;;;;;;5019234;28;20800;-66
2023/10/28 13:11:53;;;;;;;1.23;0.77;;;;;;;;;;5019385;28;20211;-68
2023/10/28 13:14:22;;;;;;;2.13;0.90;;;;;;;;;;5019234;28;20228;-67
2023/10/28 13:16:50;;;;;;;2.60;0.80;;;;;;;;;;5020467;28;20204;-67
2023/10/28 13:19:20;;;;;;;2.63;1.00;;;;;;;;;;5018928;28;20215;-67
2023/10/28 13:21:49;;;;;;;2.40;0.80;;;;;;;;;;5018971;28;20231;-67
2023/10/28 13:24:18;;;;;;;3.20;0.90;;;;;;;;;;5018825;28;20256;-68
2023/10/28 13:26:47;;;;;;;3.23;0.90;;;;;;;;;;5018998;28;20262;-67
2023/10/28 13:29:15;;;;;;;3.33;1.20;;;;;;;;;;5018675;28;20212;-66
2023/10/28 13:31:45;;;;;;;4.17;1.00;;;;;;;;;;5021259;28;20214;-66
2023/10/28 13:34:13;;;;;;;5.40;1.10;;;;;;;;;;5024555;28;20220;-67
2023/10/28 13:36:44;;;;;;;2.10;0.90;;;;;;;;;;5018606;28;20219;-66
2023/10/28 13:39:13;;;;;;;1.47;1.00;;;;;;;;;;5029945;28;20200;-66
2023/10/28 13:41:41;;;;;;;1.30;1.10;;;;;;;;;;5030857;28;20223;-67
2023/10/28 13:44:10;;;;;;;2.03;1.17;;;;;;;;;;5037497;28;20226;-67
2023/10/28 13:46:39;;;;;;;2.63;0.80;;;;;;;;;;5033630;28;20219;-67
2023/10/28 13:49:07;;;;;;;2.00;1.00;;;;;;;;;;5037658;28;20615;-66
2023/10/28 13:51:35;;;;;;;3.93;0.90;;;;;;;;;;5034638;28;21536;-66
2023/10/28 13:54:05;;;;;;;5.57;1.20;;;;;;;;;;5036064;28;20219;-64
2023/10/28 13:56:33;;;;;;;3.13;1.00;;;;;;;;;;5038285;28;20243;-66
2023/10/28 13:59:03;;;;;;;1.00;0.77;;;;;;;;;;5038041;28;20215;-67
2023/10/28 14:01:32;;;;;;;5.17;0.93;;;;;;;;;;5038058;28;20203;-68
2023/10/28 14:04:00;;;;;;;0.80;0.77;;;;;;;;;;5023692;28;20220;-65
2023/10/28 14:06:32;;;;;;;2.20;0.93;;;;;;;;;;5037701;28;20234;-67
2023/10/28 14:09:00;;;;;;;3.83;1.10;;;;;;;;;;5037790;28;20218;-68
2023/10/28 14:11:29;;;;;;;3.93;1.00;;;;;;;;;;5037587;28;20211;-65
2023/10/28 14:13:58;;;;;;;3.87;1.10;;;;;;;;;;5037790;28;20231;-65
2023/10/28 14:16:26;;;;;;;3.77;1.13;;;;;;;;;;5037922;28;20297;-67
2023/10/28 14:18:55;;;;;;;1.23;0.83;;;;;;;;;;5037773;28;20659;-66
2023/10/28 14:21:23;;;;;;;2.37;0.80;;;;;;;;;;5037360;28;20576;-65
2023/10/28 14:23:52;;;;;;;3.60;1.03;;;;;;;;;;5037645;28;20232;-67
2023/10/28 14:26:20;;;;;;;2.03;0.90;;;;;;;;;;5037795;28;20221;-65
2023/10/28 14:28:49;;;;;;;3.17;0.90;;;;;;;;;;5037946;28;20261;-65
2023/10/28 14:31:17;;;;;;;1.60;0.70;;;;;;;;;;5037511;28;20219;-66
2023/10/28 14:33:46;;;;;;;4.00;0.83;;;;;;;;;;5037487;28;20590;-66
2023/10/28 14:36:14;;;;;;;2.23;0.90;;;;;;;;;;5037335;28;20207;-66
2023/10/28 14:38:42;;;;;;;2.03;0.70;;;;;;;;;;5037522;28;20211;-65
2023/10/28 14:41:12;;;;;;;1.00;0.90;;;;;;;;;;5031575;28;20207;-65
2023/10/28 14:43:41;;;;;;;3.13;0.87;;;;;;;;;;5018540;28;20602;-65
2023/10/28 14:46:10;;;;;;;1.87;0.90;;;;;;;;;;5021829;28;20204;-65
2023/10/28 14:48:38;;;;;;;2.60;0.70;;;;;;;;;;5036837;28;20231;-65
2023/10/28 14:51:08;;;;;;;3.50;1.13;;;;;;;;;;5036964;28;20207;-65
2023/10/28 14:53:36;;;;;;;2.43;0.80;;;;;;;;;;5036102;28;20226;-65